createdAt,value
2022-12-13T00:00:27.934Z,95094.31
2022-12-13T00:03:13.825Z,95099.78
2022-12-13T00:05:59.878Z,95087.84
2022-12-13T00:08:45.797Z,95115.53
2022-12-13T00:11:32.076Z,95115.19
2022-12-13T00:14:18.990Z,95112.53
2022-12-13T00:17:05.435Z,95107.47
2022-12-13T00:19:51.545Z,95117.88
2022-12-13T00:22:37.867Z,95125.13
2022-12-13T00:25:24.179Z,95123.81
2022-12-13T00:28:10.381Z,95106.38
2022-12-13T00:31:19.817Z,95094.81
2022-12-13T00:34:06.189Z,95074.78
2022-12-13T00:36:54.719Z,95070.00
2022-12-13T00:39:41.492Z,95088.09
2022-12-13T00:42:27.699Z,95098.53
2022-12-13T00:45:13.970Z,95105.28
2022-12-13T00:48:00.710Z,95102.31
2022-12-13T00:50:46.855Z,95102.19
2022-12-13T00:53:32.906Z,95116.59
2022-12-13T00:56:23.640Z,95130.19
2022-12-13T00:59:13.854Z,95137.66
2022-12-13T01:01:59.945Z,95127.31
2022-12-13T01:04:45.954Z,95135.25
2022-12-13T01:07:31.854Z,95127.50
2022-12-13T01:10:17.657Z,95128.91
2022-12-13T01:13:03.815Z,95137.06
2022-12-13T01:15:49.619Z,95142.19
2022-12-13T01:18:36.246Z,95131.97
2022-12-13T01:21:22.539Z,95138.22
2022-12-13T01:24:10.964Z,95143.38
2022-12-13T01:26:57.801Z,95148.81
2022-12-13T01:29:44.347Z,95131.09
2022-12-13T01:32:30.251Z,95139.75
2022-12-13T01:35:16.880Z,95135.19
2022-12-13T01:38:03.247Z,95115.47
2022-12-13T01:41:02.807Z,95129.25
2022-12-13T01:44:06.257Z,95128.94
2022-12-13T01:46:52.112Z,95117.06
2022-12-13T01:49:38.368Z,95121.38
2022-12-13T01:52:25.859Z,95119.56
2022-12-13T01:55:13.068Z,95121.91
2022-12-13T01:58:02.486Z,95122.72
2022-12-13T02:00:48.874Z,95129.84
2022-12-13T02:03:35.202Z,95122.09
2022-12-13T02:06:33.420Z,95127.22
2022-12-13T02:09:20.749Z,95122.13
2022-12-13T02:12:07.481Z,95128.78
2022-12-13T02:14:53.973Z,95128.25
2022-12-13T02:18:04.301Z,95128.09
2022-12-13T02:21:18.004Z,95103.97
2022-12-13T02:24:24.193Z,95100.38
2022-12-13T02:27:30.182Z,95132.84
2022-12-13T02:30:30.590Z,95119.66
2022-12-13T02:33:22.910Z,95112.88
2022-12-13T02:36:11.868Z,95109.25
2022-12-13T02:39:14.708Z,95110.53
2022-12-13T02:42:08.136Z,95116.66
2022-12-13T02:45:20.091Z,95113.53
2022-12-13T02:48:08.482Z,95108.91
2022-12-13T02:50:56.281Z,95119.47
2022-12-13T02:53:43.326Z,95124.25
2022-12-13T02:56:31.841Z,95100.03
2022-12-13T02:59:17.925Z,95093.56
2022-12-13T03:02:21.621Z,95122.38
2022-12-13T03:05:47.688Z,95104.91
2022-12-13T03:09:07.798Z,95125.31
2022-12-13T03:12:33.569Z,95134.78
2022-12-13T03:15:41.560Z,95129.47
2022-12-13T03:18:28.484Z,95121.31
2022-12-13T03:21:14.864Z,95136.94
2022-12-13T03:24:01.612Z,95152.50
2022-12-13T03:26:48.958Z,95135.91
2022-12-13T03:29:34.953Z,95149.53
2022-12-13T03:32:20.758Z,95163.41
2022-12-13T03:35:21.919Z,95160.06
2022-12-13T03:38:09.280Z,95162.06
2022-12-13T03:40:58.379Z,95161.38
2022-12-13T03:43:44.968Z,95164.03
2022-12-13T03:46:31.211Z,95179.91
2022-12-13T03:49:17.751Z,95168.81
2022-12-13T03:52:03.639Z,95161.19
2022-12-13T03:54:49.779Z,95160.72
2022-12-13T03:57:35.796Z,95154.44
2022-12-13T04:00:21.833Z,95150.44
2022-12-13T04:03:08.292Z,95171.06
2022-12-13T04:05:54.335Z,95166.56
2022-12-13T04:08:40.730Z,95182.44
2022-12-13T04:11:44.911Z,95179.28
2022-12-13T04:14:31.044Z,95170.50
2022-12-13T04:17:17.026Z,95141.16
2022-12-13T04:20:03.083Z,95149.66
2022-12-13T04:22:48.898Z,95129.78
2022-12-13T04:25:34.833Z,95154.47
2022-12-13T04:28:22.322Z,95157.66
2022-12-13T04:31:08.926Z,95131.94
2022-12-13T04:33:54.918Z,95147.25
2022-12-13T04:36:41.881Z,95162.31
2022-12-13T04:39:27.661Z,95163.28
2022-12-13T04:42:20.509Z,95149.44
2022-12-13T04:45:06.994Z,95159.56
2022-12-13T04:47:53.001Z,95161.59
2022-12-13T04:50:38.783Z,95176.56
2022-12-13T04:53:24.777Z,95164.09
2022-12-13T04:56:10.614Z,95170.50
2022-12-13T04:58:56.569Z,95173.81
2022-12-13T05:01:42.420Z,95174.16
2022-12-13T05:04:32.647Z,95179.28
2022-12-13T05:07:18.911Z,95176.47
2022-12-13T05:10:05.823Z,95173.31
2022-12-13T05:12:51.707Z,95161.75
2022-12-13T05:15:37.609Z,95155.19
2022-12-13T05:18:23.802Z,95176.94
2022-12-13T05:21:11.543Z,95175.28
2022-12-13T05:23:57.734Z,95190.09
2022-12-13T05:26:43.674Z,95183.81
2022-12-13T05:29:29.545Z,95189.09
2022-12-13T05:32:15.738Z,95168.63
2022-12-13T05:35:01.712Z,95170.16
2022-12-13T05:37:47.811Z,95199.81
2022-12-13T05:40:40.936Z,95194.22
2022-12-13T05:43:42.810Z,95193.66
2022-12-13T05:46:29.592Z,95190.31
2022-12-13T05:49:15.585Z,95182.91
2022-12-13T05:52:01.379Z,95173.25
2022-12-13T05:54:47.583Z,95196.31
2022-12-13T05:57:34.029Z,95187.56
2022-12-13T06:00:30.068Z,95219.59
2022-12-13T06:03:17.278Z,95216.88
2022-12-13T06:06:04.564Z,95200.03
2022-12-13T06:08:50.617Z,95219.97
2022-12-13T06:11:36.653Z,95211.66
2022-12-13T06:14:29.890Z,95182.81
2022-12-13T06:17:16.011Z,95218.56
2022-12-13T06:20:24.368Z,95215.47
2022-12-13T06:23:10.968Z,95221.13
2022-12-13T06:25:57.049Z,95216.31
2022-12-13T06:28:47.315Z,95211.41
2022-12-13T06:31:33.320Z,95197.22
2022-12-13T06:34:19.085Z,95196.06
2022-12-13T06:37:07.242Z,95203.91
2022-12-13T06:39:53.364Z,95205.44
2022-12-13T06:42:39.229Z,95212.09
2022-12-13T06:45:25.785Z,95190.38
2022-12-13T06:48:15.177Z,95217.88
2022-12-13T06:51:05.728Z,95205.56
2022-12-13T06:53:51.814Z,95181.38
2022-12-13T06:56:37.667Z,95208.28
2022-12-13T06:59:23.686Z,95206.63
2022-12-13T07:02:24.192Z,95195.38
2022-12-13T07:05:11.773Z,95191.88
2022-12-13T07:07:57.727Z,95202.00
2022-12-13T07:10:43.591Z,95203.81
2022-12-13T07:13:31.170Z,95207.34
2022-12-13T07:16:17.190Z,95153.69
2022-12-13T07:19:04.347Z,95198.69
2022-12-13T07:22:09.383Z,95227.78
2022-12-13T07:24:55.452Z,95209.75
2022-12-13T07:27:41.232Z,95217.38
2022-12-13T07:30:27.498Z,95204.78
2022-12-13T07:33:14.117Z,95211.56
2022-12-13T07:36:12.784Z,95219.50
2022-12-13T07:38:58.760Z,95218.56
2022-12-13T07:41:44.855Z,95220.22
2022-12-13T07:44:30.787Z,95217.09
2022-12-13T07:47:16.652Z,95216.81
2022-12-13T07:50:02.681Z,95192.91
2022-12-13T07:52:50.014Z,95198.56
2022-12-13T07:55:36.888Z,95215.34
2022-12-13T07:58:23.201Z,95218.50
2022-12-13T08:01:10.276Z,95220.34
2022-12-13T08:03:56.471Z,95223.50
2022-12-13T08:06:42.192Z,95222.81
2022-12-13T08:09:28.930Z,95228.63
2022-12-13T08:12:15.012Z,95222.69
2022-12-13T08:15:13.819Z,95214.47
2022-12-13T08:18:01.366Z,95222.09
2022-12-13T08:20:47.396Z,95220.28
2022-12-13T08:23:34.453Z,95212.09
2022-12-13T08:26:20.717Z,95228.59
2022-12-13T08:29:06.492Z,95203.47
2022-12-13T08:31:52.405Z,95236.09
2022-12-13T08:34:39.110Z,95242.13
2022-12-13T08:37:25.872Z,95217.28
2022-12-13T08:40:12.201Z,95229.44
2022-12-13T08:42:59.165Z,95219.47
2022-12-13T08:45:45.403Z,95221.66
2022-12-13T08:48:32.056Z,95212.94
2022-12-13T08:51:24.441Z,95223.59
2022-12-13T08:54:12.664Z,95224.97
2022-12-13T08:56:58.600Z,95230.09
2022-12-13T08:59:44.726Z,95207.41
2022-12-13T09:02:30.549Z,95226.94
2022-12-13T09:05:32.930Z,95238.72
2022-12-13T09:08:23.891Z,95235.75
2022-12-13T09:11:20.625Z,95236.44
2022-12-13T09:14:14.132Z,95230.31
2022-12-13T09:17:02.572Z,95225.38
2022-12-13T09:19:49.357Z,95229.22
2022-12-13T09:22:35.944Z,95199.25
2022-12-13T09:25:24.081Z,95192.31
2022-12-13T09:28:10.395Z,95197.97
2022-12-13T09:30:57.047Z,95206.19
2022-12-13T09:33:44.218Z,95180.19
2022-12-13T09:36:30.142Z,95180.50
2022-12-13T09:39:16.412Z,95193.13
2022-12-13T09:42:10.351Z,95193.50
2022-12-13T09:45:05.574Z,95192.84
2022-12-13T09:47:53.131Z,95181.53
2022-12-13T09:50:58.296Z,95171.78
2022-12-13T09:53:47.075Z,95174.94
2022-12-13T09:56:33.364Z,95149.41
2022-12-13T09:59:30.976Z,95163.81
2022-12-13T10:02:46.132Z,95172.16
2022-12-13T10:05:40.040Z,95155.13
2022-12-13T10:08:36.576Z,95141.53
2022-12-13T10:11:23.334Z,95159.97
2022-12-13T10:14:26.352Z,95156.97
2022-12-13T10:17:16.007Z,95156.16
2022-12-13T10:20:03.863Z,95130.66
2022-12-13T10:23:14.978Z,95148.22
2022-12-13T10:26:03.378Z,95148.88
2022-12-13T10:28:51.430Z,95147.22
2022-12-13T10:31:46.277Z,95133.31
2022-12-13T10:34:35.995Z,95130.50
2022-12-13T10:37:48.424Z,95144.22
2022-12-13T10:40:48.848Z,95128.84
2022-12-13T10:43:36.141Z,95098.00
2022-12-13T10:46:25.044Z,95112.09
2022-12-13T10:49:37.947Z,95119.34
2022-12-13T10:52:43.459Z,95114.06
2022-12-13T10:55:34.308Z,95121.72
2022-12-13T10:58:20.980Z,95119.06
2022-12-13T11:01:16.265Z,95108.13
2022-12-13T11:04:25.405Z,95100.84
2022-12-13T11:07:31.307Z,95088.94
2022-12-13T11:10:26.855Z,95103.69
2022-12-13T11:13:25.274Z,95109.47
2022-12-13T11:16:17.566Z,95096.88
2022-12-13T11:19:06.179Z,95114.09
2022-12-13T11:21:53.005Z,95121.06
2022-12-13T11:24:40.999Z,95113.47
2022-12-13T11:27:49.295Z,95121.06
2022-12-13T11:30:50.694Z,95129.38
2022-12-13T11:33:57.466Z,95125.72
2022-12-13T11:37:11.696Z,95094.72
2022-12-13T11:40:36.278Z,95127.03
2022-12-13T11:43:25.095Z,95123.88
2022-12-13T11:46:20.146Z,95136.81
2022-12-13T11:49:18.180Z,95110.94
2022-12-13T11:52:25.994Z,95134.50
2022-12-13T11:55:18.490Z,95131.00
2022-12-13T11:58:08.889Z,95130.69
2022-12-13T12:00:59.924Z,95143.75
2022-12-13T12:03:59.190Z,95140.09
2022-12-13T12:06:54.847Z,95119.03
2022-12-13T12:09:46.120Z,95136.22
2022-12-13T12:12:34.732Z,95133.75
2022-12-13T12:15:26.766Z,95132.25
2022-12-13T12:18:16.700Z,95136.38
2022-12-13T12:21:14.272Z,95142.16
2022-12-13T12:24:06.340Z,95159.75
2022-12-13T12:27:11.267Z,95155.56
2022-12-13T12:30:09.031Z,95156.56
2022-12-13T12:32:55.009Z,95147.44
2022-12-13T12:35:50.020Z,95147.50
2022-12-13T12:38:54.866Z,95133.59
2022-12-13T12:42:15.080Z,95123.63
2022-12-13T12:49:07.965Z,95115.56
2022-12-13T12:52:04.978Z,95114.41
2022-12-13T12:55:18.920Z,95111.41
2022-12-13T12:58:13.300Z,95105.63
2022-12-13T13:01:36.096Z,95099.19
2022-12-13T13:04:35.831Z,95075.97
2022-12-13T13:07:40.019Z,95077.81
2022-12-13T13:10:27.381Z,95080.59
2022-12-13T13:13:33.735Z,95080.81
2022-12-13T13:16:39.253Z,95072.19
2022-12-13T13:19:31.465Z,95078.97
2022-12-13T13:22:33.849Z,95072.50
2022-12-13T13:25:40.112Z,95059.25
2022-12-13T13:28:40.131Z,95054.63
2022-12-13T13:31:26.029Z,95066.06
2022-12-13T13:34:25.739Z,95076.31
2022-12-13T13:37:24.373Z,95077.31
2022-12-13T13:40:13.538Z,95080.97
2022-12-13T13:43:17.426Z,95068.84
2022-12-13T13:46:03.409Z,95099.19
2022-12-13T13:49:07.123Z,95095.22
2022-12-13T13:55:30.280Z,95099.88
2022-12-13T13:58:21.475Z,95118.25
2022-12-13T14:01:38.330Z,95116.28
2022-12-13T14:04:45.689Z,95112.97
2022-12-13T14:07:53.523Z,95114.47
2022-12-13T14:10:52.853Z,95123.38
2022-12-13T14:13:56.301Z,95118.09
2022-12-13T14:17:03.659Z,95124.06
2022-12-13T14:20:15.113Z,95107.81
2022-12-13T14:23:22.430Z,95123.41
2022-12-13T14:26:25.427Z,95127.41
2022-12-13T14:29:15.618Z,95124.03
2022-12-13T14:32:02.100Z,95114.13
2022-12-13T14:34:49.775Z,95125.56
2022-12-13T14:37:37.874Z,95122.91
2022-12-13T14:40:36.796Z,95119.44
2022-12-13T14:43:24.565Z,95119.75
2022-12-13T14:46:14.783Z,95107.66
2022-12-13T14:49:01.676Z,95116.44
2022-12-13T14:52:00.261Z,95115.78
2022-12-13T14:54:51.569Z,95114.78
2022-12-13T14:57:52.091Z,95128.03
2022-12-13T15:00:40.805Z,95124.22
2022-12-13T15:03:28.263Z,95126.53
2022-12-13T15:06:14.647Z,95119.09
2022-12-13T15:09:01.835Z,95125.41
2022-12-13T15:11:47.807Z,95133.03
2022-12-13T15:14:34.723Z,95107.16
2022-12-13T15:17:37.045Z,95103.50
2022-12-13T15:20:39.174Z,95119.75
2022-12-13T15:23:29.848Z,95122.25
2022-12-13T15:26:28.500Z,95118.75
2022-12-13T15:29:18.949Z,95123.56
2022-12-13T15:32:05.848Z,95105.81
2022-12-13T15:34:52.020Z,95118.44
2022-12-13T15:37:37.968Z,95111.28
2022-12-13T15:40:23.905Z,95119.25
2022-12-13T15:43:17.259Z,95138.47
2022-12-13T15:46:04.554Z,95118.09
2022-12-13T15:48:50.560Z,95088.25
2022-12-13T15:51:54.265Z,95117.59
2022-12-13T15:54:40.065Z,95109.31
2022-12-13T15:57:31.344Z,95122.91
2022-12-13T16:00:17.350Z,95110.66
2022-12-13T16:03:09.707Z,95107.81
2022-12-13T16:05:56.546Z,95099.38
2022-12-13T16:08:45.908Z,95102.19
2022-12-13T16:12:05.172Z,95102.50
2022-12-13T16:14:51.641Z,95102.69
2022-12-13T16:17:42.114Z,95096.56
2022-12-13T16:20:30.520Z,95104.84
2022-12-13T16:23:26.657Z,95097.38
2022-12-13T16:26:14.216Z,95085.75
2022-12-13T16:29:00.424Z,95094.06
2022-12-13T16:31:46.616Z,95088.94
2022-12-13T16:34:32.726Z,95094.22
2022-12-13T16:37:26.002Z,95089.75
2022-12-13T16:40:17.651Z,95102.16
2022-12-13T16:43:06.314Z,95104.00
2022-12-13T16:45:53.659Z,95097.84
2022-12-13T16:48:39.394Z,95111.13
2022-12-13T16:51:25.131Z,95107.47
2022-12-13T16:54:11.392Z,95099.00
2022-12-13T16:56:57.521Z,95116.75
2022-12-13T16:59:43.489Z,95107.16
2022-12-13T17:02:29.564Z,95084.59
2022-12-13T17:05:15.673Z,95093.56
2022-12-13T17:08:01.995Z,95098.19
2022-12-13T17:10:48.193Z,95097.88
2022-12-13T17:13:44.971Z,95080.44
2022-12-13T17:16:31.853Z,95102.00
2022-12-13T17:19:18.117Z,95099.53
2022-12-13T17:22:04.183Z,95074.00
2022-12-13T17:24:49.953Z,95095.88
2022-12-13T17:27:36.398Z,95088.94
2022-12-13T17:30:24.228Z,95101.50
2022-12-13T17:33:12.249Z,95108.66
2022-12-13T17:36:01.648Z,95093.41
2022-12-13T17:38:48.308Z,95099.69
2022-12-13T17:41:34.284Z,95085.63
2022-12-13T17:44:20.808Z,95085.09
2022-12-13T17:47:07.191Z,95090.41
2022-12-13T17:49:53.500Z,95083.31
2022-12-13T17:52:39.944Z,95091.41
2022-12-13T17:55:25.819Z,95089.91
2022-12-13T17:58:14.286Z,95081.81
2022-12-13T18:01:13.776Z,95110.13
2022-12-13T18:04:00.124Z,95101.53
2022-12-13T18:06:46.452Z,95104.81
2022-12-13T18:09:32.535Z,95097.53
2022-12-13T18:12:19.473Z,95118.25
2022-12-13T18:15:06.294Z,95105.50
2022-12-13T18:21:06.733Z,95095.88
2022-12-13T18:23:55.069Z,95103.16
2022-12-13T18:26:42.096Z,95080.97
2022-12-13T18:29:28.346Z,95084.59
2022-12-13T18:32:14.264Z,95091.91
2022-12-13T18:35:00.156Z,95106.50
2022-12-13T18:37:46.193Z,95095.19
2022-12-13T18:40:32.369Z,95104.66
2022-12-13T18:43:18.643Z,95113.44
2022-12-13T18:46:05.346Z,95106.50
2022-12-13T18:48:51.694Z,95088.56
2022-12-13T18:51:38.087Z,95100.50
2022-12-13T18:54:24.301Z,95110.13
2022-12-13T18:57:10.281Z,95108.63
2022-12-13T18:59:56.182Z,95117.41
2022-12-13T19:02:42.108Z,95095.84
2022-12-13T19:05:28.178Z,95088.72
2022-12-13T19:08:14.229Z,95120.38
2022-12-13T19:11:01.783Z,95109.28
2022-12-13T19:13:48.545Z,95108.09
2022-12-13T19:16:34.500Z,95116.75
2022-12-13T19:19:20.511Z,95114.09
2022-12-13T19:22:06.830Z,95116.91
2022-12-13T19:24:52.716Z,95121.56
2022-12-13T19:27:39.258Z,95128.50
2022-12-13T19:30:26.086Z,95133.63
2022-12-13T19:33:13.147Z,95139.09
2022-12-13T19:35:58.895Z,95136.28
2022-12-13T19:38:45.146Z,95129.69
2022-12-13T19:41:32.405Z,95130.00
2022-12-13T19:44:18.728Z,95122.88
2022-12-13T19:47:05.056Z,95125.69
2022-12-13T19:49:51.270Z,95136.94
2022-12-13T19:52:38.473Z,95129.47
2022-12-13T19:55:24.588Z,95133.44
2022-12-13T19:58:11.027Z,95107.41
2022-12-13T20:01:04.479Z,95113.53
2022-12-13T20:03:50.566Z,95117.81
2022-12-13T20:06:36.563Z,95114.66
2022-12-13T20:09:22.276Z,95128.13
2022-12-13T20:12:08.604Z,95119.84
2022-12-13T20:14:54.562Z,95125.50
2022-12-13T20:17:40.351Z,95125.50
2022-12-13T20:20:40.857Z,95112.22
2022-12-13T20:23:34.829Z,95126.97
2022-12-13T20:26:23.375Z,95123.50
2022-12-13T20:29:09.531Z,95113.38
2022-12-13T20:31:56.696Z,95103.09
2022-12-13T20:34:42.919Z,95121.19
2022-12-13T20:37:28.965Z,95120.06
2022-12-13T20:40:15.146Z,95125.19
2022-12-13T20:43:01.777Z,95133.47
2022-12-13T20:45:47.607Z,95119.72
2022-12-13T20:48:38.767Z,95132.31
2022-12-13T20:51:26.828Z,95137.13
2022-12-13T20:54:12.722Z,95132.63
2022-12-13T20:56:58.579Z,95118.22
2022-12-13T20:59:44.620Z,95114.75
2022-12-13T21:02:30.922Z,95104.13
2022-12-13T21:05:20.685Z,95118.03
2022-12-13T21:08:25.263Z,95110.75
2022-12-13T21:11:26.784Z,95114.75
2022-12-13T21:14:25.510Z,95113.75
2022-12-13T21:17:12.104Z,95124.34
2022-12-13T21:19:57.979Z,95097.47
2022-12-13T21:22:43.944Z,95120.84
2022-12-13T21:25:29.904Z,95123.19
2022-12-13T21:28:15.644Z,95125.31
2022-12-13T21:31:03.637Z,95131.63
2022-12-13T21:33:55.015Z,95128.97
2022-12-13T21:36:43.773Z,95138.56
2022-12-13T21:39:29.791Z,95131.63
2022-12-13T21:42:16.011Z,95141.72
2022-12-13T21:45:02.445Z,95138.75
2022-12-13T21:47:49.030Z,95119.47
2022-12-13T21:50:35.152Z,95119.69
2022-12-13T21:53:21.434Z,95116.53
2022-12-13T21:56:31.349Z,95128.31
2022-12-13T21:59:22.634Z,95125.66
2022-12-13T22:02:16.361Z,95116.69
2022-12-13T22:05:02.486Z,95095.16
2022-12-13T22:07:48.499Z,95099.47
2022-12-13T22:10:34.626Z,95120.38
2022-12-13T22:13:20.560Z,95101.28
2022-12-13T22:16:07.080Z,95100.00
2022-12-13T22:18:56.908Z,95110.41
2022-12-13T22:21:43.309Z,95104.28
2022-12-13T22:24:29.497Z,95100.66
2022-12-13T22:27:19.588Z,95087.91
2022-12-13T22:30:06.512Z,95115.09
2022-12-13T22:32:52.972Z,95100.34
2022-12-13T22:35:39.144Z,95103.00
2022-12-13T22:38:25.444Z,95094.72
2022-12-13T22:41:14.429Z,95073.66
2022-12-13T22:44:00.458Z,95089.41
2022-12-13T22:46:46.838Z,95094.19
2022-12-13T22:49:32.769Z,95091.22
2022-12-13T22:52:18.524Z,95074.47
2022-12-13T22:55:05.147Z,95078.63
2022-12-13T22:57:50.907Z,95067.72
2022-12-13T23:00:37.096Z,95065.88
2022-12-13T23:03:23.913Z,95059.75
2022-12-13T23:06:13.998Z,95078.66
2022-12-13T23:09:02.272Z,95081.81
2022-12-13T23:12:06.560Z,95064.22
2022-12-13T23:14:52.900Z,95074.84
2022-12-13T23:17:38.634Z,95077.81
2022-12-13T23:20:24.576Z,95066.53
2022-12-13T23:23:10.442Z,95062.06
2022-12-13T23:25:56.322Z,95086.78
2022-12-13T23:28:43.501Z,95091.88
2022-12-13T23:31:31.191Z,95047.81
2022-12-13T23:34:17.277Z,95087.56
2022-12-13T23:37:03.436Z,95087.41
2022-12-13T23:39:49.323Z,95094.03
2022-12-13T23:42:35.109Z,95065.22
2022-12-13T23:45:21.068Z,95078.63
2022-12-13T23:48:07.180Z,95089.41
2022-12-13T23:50:53.322Z,95084.25
2022-12-13T23:53:39.852Z,95064.38
2022-12-13T23:56:26.470Z,95069.53
2022-12-13T23:59:12.553Z,95067.03
